メインページ
METAR-TAF:

METAR-TAF

空港 :

シアトル・タコマ国際空港

シアトル / タコマ, ワシントン, アメリカ合衆国

緯度: 47-26-41N, 経度: 122-18-49W, 海抜: 130m

現時点の気象観測

当レポートは28分前の12:53(UTC)に作成
北/北東の風 7kt
気温 12°C
湿度 82%
気圧 1024 hPa
視程: 16.1km
晴天

METAR: KSEA 261253Z 02007KT 10SM CLR 12/09 A3023 RMK AO2 SLP243 T01170094

時間: 06:21 (13:21 UTC)

予報

当レポートは2時間1分前の11:20(UTC)に作成
予報は26日の 12時(UTC)から 27日の 18時(UTC)まで有効
北/北東の風 6kt
視程: 10km
晴天
26日の 1800時(UTC)から
の風 10kt
視程: 10km
高度25000ftの雲は散在している
27日の 0600時(UTC)から
北/北東の風 8kt
視程: 10km
晴天

TAF: KSEA 261120Z 2612/2718 02006KT P6SM SKC FM261800 35010KT P6SM SCT250 FM270600 03008KT P6SM SKC

4,000以上の空港の気象観測と天気予報(METAR報とTAF報)

利用可能な観測所は地図上に黄色い丸と赤い丸で示す。

丸の上にカーソルを重ねると観測所名を参照できる。

次にクリックすると気象観測と天気予報を参照できる。

マップの切り替え:黒色「×」印の緑ボタンをクリックして拡大、「-」印の緑ボタンをクリックして縮小、緑色の三角印をクリックして隣りの地図に切り替え


METAR-TAF: